Time;durP1;ratioP1;P1;durP2;ratioP2;P2;SDS_P1;SDS_P2;PMS_P1;PMS_P2;Temp;Humidity;BMP_temperature;BMP_pressure;BME280_temperature;BME280_humidity;BME280_pressure;Samples;Min_cycle;Max_cycle;Signal;HPM_P1;HPM_P2
2023/08/04 00:01:22;;;;;;;8.68;2.08;;;15.60;99.90;;;;;;5076214;28;20048;-60
2023/08/04 00:03:48;;;;;;;7.72;1.83;;;15.70;99.90;;;;;;5078229;28;20407;-59
2023/08/04 00:06:14;;;;;;;7.85;2.03;;;15.60;99.90;;;;;;5075916;28;20098;-60
2023/08/04 00:08:39;;;;;;;9.45;2.58;;;15.70;99.90;;;;;;5079915;28;20127;-59
2023/08/04 00:11:05;;;;;;;6.05;1.95;;;15.60;99.90;;;;;;5079910;28;20052;-59
2023/08/04 00:13:31;;;;;;;7.47;1.58;;;15.50;99.90;;;;;;5081118;28;20495;-60
2023/08/04 00:16:07;;;;;;;6.20;1.65;;;15.60;99.90;;;;;;5080906;28;20263;-59
2023/08/04 00:18:33;;;;;;;5.30;1.83;;;15.60;99.90;;;;;;5079154;28;20056;-60
2023/08/04 00:20:59;;;;;;;8.25;1.70;;;15.50;99.90;;;;;;5081752;28;20048;-60
2023/08/04 00:23:25;;;;;;;7.47;2.00;;;15.40;99.90;;;;;;5079258;28;20041;-59
2023/08/04 00:25:50;;;;;;;5.57;1.50;;;15.40;99.90;;;;;;5081289;28;20043;-59
2023/08/04 00:28:16;;;;;;;5.85;1.50;;;15.30;99.90;;;;;;5079527;28;20048;-59
2023/08/04 00:30:42;;;;;;;6.38;1.73;;;15.40;99.90;;;;;;5080495;28;20071;-59
2023/08/04 00:33:08;;;;;;;6.85;1.85;;;15.20;99.90;;;;;;5080503;28;20037;-59
2023/08/04 00:35:33;;;;;;;8.63;1.85;;;15.30;99.90;;;;;;5079500;28;20079;-60
2023/08/04 00:38:00;;;;;;;5.78;1.80;;;15.40;99.90;;;;;;5081186;28;20044;-59
2023/08/04 00:40:28;;;;;;;8.32;2.40;;;15.40;99.90;;;;;;5079107;28;20044;-60
2023/08/04 00:42:54;;;;;;;6.25;1.95;;;15.40;99.90;;;;;;5080919;28;20040;-60
2023/08/04 00:45:21;;;;;;;6.18;2.03;;;15.40;99.90;;;;;;5079052;28;20059;-59
2023/08/04 00:47:46;;;;;;;7.30;2.13;;;15.40;99.90;;;;;;5080077;28;20048;-60
2023/08/04 00:50:14;;;;;;;5.85;1.83;;;15.40;99.90;;;;;;5080216;28;20128;-59
2023/08/04 00:52:40;;;;;;;9.15;2.58;;;15.50;99.90;;;;;;5079156;28;20072;-60
2023/08/04 00:55:08;;;;;;;8.63;2.50;;;15.50;99.90;;;;;;5081181;28;20115;-60
2023/08/04 00:57:36;;;;;;;7.15;2.35;;;15.40;99.90;;;;;;5094121;28;20099;-60
2023/08/04 01:00:02;;;;;;;7.28;2.33;;;15.50;99.90;;;;;;5100905;28;20040;-59
2023/08/04 01:02:28;;;;;;;7.72;2.50;;;15.50;99.90;;;;;;5080723;28;20121;-60
2023/08/04 01:04:54;;;;;;;6.47;2.10;;;15.50;99.90;;;;;;5100557;28;20113;-60
2023/08/04 01:07:24;;;;;;;6.72;2.03;;;15.40;99.90;;;;;;5100218;28;20102;-59
2023/08/04 01:10:17;;;;;;;9.77;2.63;;;15.50;99.90;;;;;;5098922;28;20127;-59
2023/08/04 01:12:51;;;;;;;9.77;2.30;;;15.50;99.90;;;;;;5100492;28;20585;-60
2023/08/04 01:15:18;;;;;;;8.48;2.42;;;15.40;99.90;;;;;;5098956;28;20040;-59
2023/08/04 01:17:44;;;;;;;7.85;2.33;;;15.40;99.90;;;;;;5099952;28;20036;-59
2023/08/04 01:20:10;;;;;;;7.68;2.38;;;15.30;99.90;;;;;;5099902;28;20067;-60
2023/08/04 01:22:36;;;;;;;9.20;2.00;;;15.30;99.90;;;;;;5080798;28;20048;-60
2023/08/04 01:25:02;;;;;;;12.07;2.45;;;15.30;99.90;;;;;;5094546;28;20052;-59
2023/08/04 01:27:28;;;;;;;9.60;2.40;;;15.40;99.90;;;;;;5078169;28;20060;-60
2023/08/04 01:29:56;;;;;;;9.88;2.15;;;15.30;99.90;;;;;;5079672;28;20040;-59
2023/08/04 01:32:22;;;;;;;9.07;2.20;;;15.30;99.90;;;;;;5078023;28;20048;-60
2023/08/04 01:34:49;;;;;;;8.00;2.33;;;15.40;99.90;;;;;;5079443;28;20040;-60
2023/08/04 01:37:15;;;;;;;10.90;2.28;;;15.50;99.90;;;;;;5078881;28;20041;-60
2023/08/04 01:39:42;;;;;;;6.80;2.40;;;15.50;99.90;;;;;;5078092;28;20587;-60
2023/08/04 01:42:07;;;;;;;9.30;2.17;;;15.50;99.90;;;;;;5079862;28;20048;-60
2023/08/04 01:44:33;;;;;;;7.93;2.00;;;15.50;99.90;;;;;;5059546;28;20028;-60
2023/08/04 01:46:59;;;;;;;7.40;2.22;;;15.50;99.90;;;;;;5079578;28;20082;-60
2023/08/04 01:49:25;;;;;;;8.52;2.33;;;15.50;99.90;;;;;;5077507;28;20048;-60
2023/08/04 01:51:51;;;;;;;10.82;3.60;;;15.50;99.90;;;;;;5078867;28;20040;-59
2023/08/04 01:54:16;;;;;;;10.85;2.30;;;15.50;99.90;;;;;;5078482;28;20039;-60
2023/08/04 01:56:42;;;;;;;7.07;2.20;;;15.50;99.90;;;;;;5086330;28;20028;-59
2023/08/04 01:59:08;;;;;;;8.98;2.08;;;15.60;99.90;;;;;;5099738;28;20036;-59
2023/08/04 02:01:33;;;;;;;8.35;2.42;;;15.40;99.90;;;;;;5097694;28;20046;-60
2023/08/04 02:03:59;;;;;;;7.00;2.10;;;15.40;99.90;;;;;;5099586;28;20048;-60
2023/08/04 02:06:24;;;;;;;7.97;2.08;;;15.60;99.90;;;;;;5097736;28;20047;-60
2023/08/04 02:08:50;;;;;;;10.07;2.25;;;15.50;99.90;;;;;;5081151;28;20116;-60
2023/08/04 02:11:16;;;;;;;7.97;2.00;;;15.60;99.90;;;;;;5098136;28;20044;-59
2023/08/04 02:13:41;;;;;;;7.78;2.28;;;15.40;99.90;;;;;;5098327;28;20044;-59
2023/08/04 02:16:07;;;;;;;8.50;2.70;;;15.30;99.90;;;;;;5099231;28;20044;-59
2023/08/04 02:18:32;;;;;;;7.07;2.08;;;15.40;99.90;;;;;;5097025;28;20044;-60
2023/08/04 02:20:58;;;;;;;6.43;2.00;;;15.30;99.90;;;;;;5099617;28;20047;-60
2023/08/04 02:23:24;;;;;;;8.18;2.35;;;15.40;99.90;;;;;;5097320;28;20059;-59
2023/08/04 02:25:49;;;;;;;6.10;2.00;;;15.30;99.90;;;;;;5098917;28;20089;-59
2023/08/04 02:28:15;;;;;;;8.30;2.10;;;15.30;99.90;;;;;;5097517;28;20040;-59
2023/08/04 02:30:41;;;;;;;9.70;3.00;;;15.30;99.90;;;;;;5098184;28;20088;-60
2023/08/04 02:33:06;;;;;;;7.70;2.25;;;15.20;99.90;;;;;;5098869;28;20047;-59
2023/08/04 02:35:32;;;;;;;7.50;2.05;;;15.30;99.90;;;;;;5097255;28;20594;-59
2023/08/04 02:37:58;;;;;;;7.10;2.53;;;15.30;99.90;;;;;;5099232;28;20052;-59
2023/08/04 02:40:23;;;;;;;6.80;2.40;;;15.20;99.90;;;;;;5096493;28;20040;-60
2023/08/04 02:42:49;;;;;;;7.70;2.85;;;15.20;99.90;;;;;;5099193;28;20043;-61
2023/08/04 02:45:15;;;;;;;6.18;2.38;;;15.30;99.90;;;;;;5097202;28;20045;-59
2023/08/04 02:47:40;;;;;;;6.60;2.22;;;15.20;99.90;;;;;;5098475;28;20040;-59
2023/08/04 02:50:06;;;;;;;5.70;2.63;;;15.10;99.90;;;;;;5097909;28;20040;-59
2023/08/04 02:52:33;;;;;;;9.77;2.50;;;15.20;99.90;;;;;;5097467;28;20111;-60
2023/08/04 02:54:59;;;;;;;7.00;2.28;;;15.30;99.90;;;;;;5098577;28;20103;-60
2023/08/04 02:57:30;;;;;;;5.68;2.00;;;15.30;99.90;;;;;;5082351;28;20076;-60
2023/08/04 02:59:59;;;;;;;6.22;2.03;;;15.30;99.90;;;;;;5079170;28;20132;-60
2023/08/04 03:02:26;;;;;;;8.95;2.42;;;15.20;99.90;;;;;;5076848;28;20048;-60
2023/08/04 03:04:51;;;;;;;7.50;2.67;;;15.10;99.90;;;;;;5078036;28;20107;-60
2023/08/04 03:07:17;;;;;;;9.13;2.33;;;15.20;99.90;;;;;;5077747;28;20098;-59
2023/08/04 03:09:43;;;;;;;8.20;2.22;;;15.20;99.90;;;;;;5076917;28;20444;-59
2023/08/04 03:12:09;;;;;;;7.28;2.08;;;15.10;99.90;;;;;;5078929;28;20117;-59
2023/08/04 03:14:34;;;;;;;8.68;2.70;;;15.10;99.90;;;;;;5076388;28;20050;-60
2023/08/04 03:17:00;;;;;;;7.50;2.38;;;15.20;99.90;;;;;;5078468;28;20045;-60
2023/08/04 03:19:26;;;;;;;8.25;2.75;;;15.00;99.90;;;;;;5076417;28;20067;-60
2023/08/04 03:21:52;;;;;;;9.45;3.42;;;15.10;99.90;;;;;;5077997;28;20091;-60
2023/08/04 03:24:18;;;;;;;7.63;2.70;;;15.00;99.90;;;;;;5059391;28;20420;-60
2023/08/04 03:26:43;;;;;;;8.45;3.00;;;15.10;99.90;;;;;;5076868;28;20079;-60
2023/08/04 03:29:09;;;;;;;8.95;3.15;;;14.90;99.90;;;;;;5078608;28;20036;-59
2023/08/04 03:31:35;;;;;;;7.35;2.88;;;14.90;99.90;;;;;;5076267;28;20048;-59
2023/08/04 03:34:01;;;;;;;9.13;3.03;;;15.00;99.90;;;;;;5078245;28;20482;-60
2023/08/04 03:36:26;;;;;;;8.32;2.65;;;15.10;99.90;;;;;;5076156;28;20108;-60
2023/08/04 03:38:52;;;;;;;6.20;2.70;;;15.10;99.90;;;;;;5077735;28;20064;-61
2023/08/04 03:41:18;;;;;;;6.82;2.80;;;15.00;99.90;;;;;;5077075;28;20049;-60
2023/08/04 03:43:44;;;;;;;7.85;2.78;;;15.00;99.90;;;;;;5079452;28;20097;-60
2023/08/04 03:46:09;;;;;;;9.07;3.00;;;15.00;99.90;;;;;;5082045;28;20044;-60
2023/08/04 03:48:35;;;;;;;9.85;3.03;;;15.00;99.90;;;;;;5079727;28;20137;-61
2023/08/04 03:51:00;;;;;;;8.35;3.25;;;15.10;99.90;;;;;;5082132;28;20037;-60
2023/08/04 03:53:26;;;;;;;7.03;3.35;;;15.00;99.90;;;;;;5079707;28;20098;-60
2023/08/04 03:55:52;;;;;;;7.40;2.50;;;15.10;99.90;;;;;;5083083;28;20057;-60
2023/08/04 03:58:17;;;;;;;5.95;2.58;;;15.00;99.90;;;;;;5100760;28;20032;-62
2023/08/04 04:00:43;;;;;;;8.85;2.65;;;15.00;99.90;;;;;;5100451;28;20060;-61
2023/08/04 04:03:09;;;;;;;7.85;2.67;;;15.00;99.90;;;;;;5101933;28;20116;-60
2023/08/04 04:05:35;;;;;;;5.97;2.40;;;15.00;99.90;;;;;;5081786;28;20036;-63
2023/08/04 04:08:00;;;;;;;7.00;2.47;;;14.90;99.90;;;;;;5101841;28;20056;-63
2023/08/04 04:10:26;;;;;;;7.20;2.22;;;15.00;99.90;;;;;;5099747;28;20051;-64
2023/08/04 04:12:51;;;;;;;7.22;2.13;;;14.70;99.90;;;;;;5101824;28;20040;-65
2023/08/04 04:15:17;;;;;;;7.80;2.42;;;14.70;99.90;;;;;;5100113;28;20047;-64
2023/08/04 04:17:43;;;;;;;7.95;2.63;;;14.80;99.90;;;;;;5100990;28;20048;-61
2023/08/04 04:20:09;;;;;;;5.60;2.10;;;14.80;99.90;;;;;;5101191;28;20044;-62
2023/08/04 04:22:34;;;;;;;6.78;2.35;;;14.70;99.90;;;;;;5099768;28;20082;-62
2023/08/04 04:25:02;;;;;;;7.50;2.38;;;14.70;99.90;;;;;;5101875;28;20052;-62
2023/08/04 04:27:28;;;;;;;6.53;2.38;;;14.80;99.90;;;;;;5099220;28;20040;-62
2023/08/04 04:29:53;;;;;;;7.03;2.10;;;14.70;99.90;;;;;;5101635;28;20185;-63
2023/08/04 04:32:19;;;;;;;7.38;2.30;;;14.70;99.90;;;;;;5099615;28;20100;-61
2023/08/04 04:34:45;;;;;;;9.32;2.60;;;14.90;99.90;;;;;;5100819;28;20074;-62
2023/08/04 04:37:10;;;;;;;6.78;2.63;;;14.80;99.90;;;;;;5100406;28;20075;-62
2023/08/04 04:39:36;;;;;;;9.70;4.13;;;14.90;99.90;;;;;;5099739;28;20066;-62
2023/08/04 04:42:03;;;;;;;8.50;2.45;;;14.90;99.90;;;;;;5101428;28;20069;-62
2023/08/04 04:44:29;;;;;;;6.32;2.80;;;15.00;99.90;;;;;;5099432;28;20032;-62
2023/08/04 04:46:54;;;;;;;6.78;2.53;;;14.90;99.90;;;;;;5101071;28;20070;-63
2023/08/04 04:49:20;;;;;;;6.32;2.83;;;15.10;99.90;;;;;;5099063;28;20584;-63
2023/08/04 04:51:46;;;;;;;7.15;2.95;;;14.90;99.90;;;;;;5100782;28;20040;-63
2023/08/04 04:54:12;;;;;;;6.88;3.28;;;15.00;99.90;;;;;;5099514;28;20036;-62
2023/08/04 04:56:38;;;;;;;8.98;3.25;;;14.90;99.90;;;;;;5091967;28;20037;-62
2023/08/04 04:59:04;;;;;;;8.43;2.90;;;14.90;99.90;;;;;;5080821;28;20060;-62
2023/08/04 05:01:30;;;;;;;9.63;2.80;;;14.80;99.90;;;;;;5078639;28;20052;-62
2023/08/04 05:03:56;;;;;;;8.13;3.00;;;14.90;99.90;;;;;;5080778;28;20050;-62
2023/08/04 05:06:21;;;;;;;8.10;2.65;;;15.00;99.90;;;;;;5078441;28;20047;-61
2023/08/04 05:08:47;;;;;;;6.70;2.60;;;15.00;99.90;;;;;;5080178;28;20055;-62
2023/08/04 05:11:12;;;;;;;7.00;2.67;;;14.90;99.90;;;;;;5079137;28;20464;-62
2023/08/04 05:13:41;;;;;;;7.53;3.10;;;15.00;99.90;;;;;;5079595;28;20047;-62
2023/08/04 05:16:07;;;;;;;7.43;2.70;;;15.10;99.90;;;;;;5080311;28;20044;-62
2023/08/04 05:18:33;;;;;;;8.90;2.95;;;15.10;99.90;;;;;;5078160;28;20075;-61
2023/08/04 05:20:58;;;;;;;8.85;2.92;;;15.00;99.90;;;;;;5080599;28;20045;-62
2023/08/04 05:23:24;;;;;;;6.90;3.30;;;15.10;99.90;;;;;;5060067;28;20166;-62
2023/08/04 05:25:50;;;;;;;8.57;3.13;;;15.20;99.90;;;;;;5080177;28;20112;-62
2023/08/04 05:28:24;;;;;;;6.38;2.80;;;15.20;99.90;;;;;;5078705;28;20047;-60
2023/08/04 05:30:56;;;;;;;7.13;3.00;;;15.40;99.90;;;;;;5079072;28;20049;-61
2023/08/04 05:33:22;;;;;;;7.55;2.92;;;15.40;99.90;;;;;;5079862;28;20074;-61
2023/08/04 05:35:48;;;;;;;8.50;3.08;;;15.30;99.90;;;;;;5078010;28;20045;-61
2023/08/04 05:38:14;;;;;;;7.00;2.90;;;15.40;99.90;;;;;;5077069;28;20057;-62
2023/08/04 05:40:43;;;;;;;6.78;2.80;;;15.40;99.90;;;;;;5073759;28;20052;-61
2023/08/04 05:43:09;;;;;;;10.18;3.22;;;15.40;99.90;;;;;;5075521;28;20048;-61
2023/08/04 05:45:36;;;;;;;7.20;2.80;;;15.40;99.90;;;;;;5075246;28;20072;-60
2023/08/04 05:48:02;;;;;;;8.70;2.75;;;15.50;99.90;;;;;;5056356;28;20059;-61
2023/08/04 05:50:28;;;;;;;8.60;2.80;;;15.50;99.90;;;;;;5075312;28;20049;-61
2023/08/04 05:52:53;;;;;;;7.68;2.60;;;15.50;99.90;;;;;;5073555;28;20048;-61
2023/08/04 05:55:22;;;;;;;6.03;2.42;;;15.70;99.90;;;;;;5075824;28;20127;-61
2023/08/04 05:57:49;;;;;;;10.32;2.92;;;15.70;99.90;;;;;;5091261;28;20396;-61
2023/08/04 06:00:15;;;;;;;6.63;2.42;;;15.60;99.90;;;;;;5095670;28;20052;-61
2023/08/04 06:02:43;;;;;;;5.70;2.40;;;15.60;99.90;;;;;;5076015;28;20051;-61
2023/08/04 06:05:09;;;;;;;7.47;2.97;;;15.60;99.90;;;;;;5094049;28;20119;-61
2023/08/04 06:07:35;;;;;;;5.43;2.38;;;15.60;99.90;;;;;;5095677;28;20040;-61
2023/08/04 06:10:01;;;;;;;6.78;2.35;;;15.60;99.90;;;;;;5093997;28;20065;-61
2023/08/04 06:12:27;;;;;;;8.63;2.70;;;15.70;99.90;;;;;;5095854;28;20310;-61
2023/08/04 06:14:52;;;;;;;8.05;2.42;;;15.80;99.90;;;;;;5093249;28;20036;-61
2023/08/04 06:17:18;;;;;;;5.85;2.90;;;15.60;99.90;;;;;;5077119;28;20048;-61
2023/08/04 06:19:44;;;;;;;10.10;3.05;;;15.80;99.90;;;;;;5093960;28;20048;-61
2023/08/04 06:22:10;;;;;;;6.95;2.58;;;15.80;99.90;;;;;;5094645;28;20044;-61
2023/08/04 06:24:35;;;;;;;6.30;2.90;;;16.00;99.90;;;;;;5095027;28;20052;-60
2023/08/04 06:27:03;;;;;;;6.10;2.63;;;15.80;99.90;;;;;;5092962;28;20074;-61
2023/08/04 06:29:29;;;;;;;9.63;3.20;;;15.90;99.90;;;;;;5095305;28;20044;-61
2023/08/04 06:31:55;;;;;;;7.43;3.03;;;16.00;99.90;;;;;;5093473;28;20091;-61
2023/08/04 06:34:21;;;;;;;6.93;2.67;;;16.00;99.90;;;;;;5095478;28;20052;-61
2023/08/04 06:36:47;;;;;;;7.60;3.05;;;16.10;99.90;;;;;;5075836;28;20052;-61
2023/08/04 06:39:13;;;;;;;9.13;2.83;;;16.10;99.90;;;;;;5093591;28;20059;-60
2023/08/04 06:41:39;;;;;;;10.73;3.17;;;16.10;99.90;;;;;;5095006;28;20052;-60
2023/08/04 06:44:05;;;;;;;7.93;3.20;;;16.10;99.90;;;;;;5093001;28;20048;-60
2023/08/04 06:46:31;;;;;;;6.22;2.60;;;16.20;99.90;;;;;;5095233;28;20537;-60
2023/08/04 06:48:56;;;;;;;10.55;3.00;;;16.30;99.90;;;;;;5092556;28;20047;-60
2023/08/04 06:51:22;;;;;;;7.63;2.92;;;16.30;99.90;;;;;;5094534;28;20074;-62
2023/08/04 06:53:48;;;;;;;7.57;2.92;;;16.30;99.90;;;;;;5093489;28;20059;-60
2023/08/04 06:56:13;;;;;;;8.32;3.10;;;16.30;99.90;;;;;;5094510;28;20073;-61
2023/08/04 06:58:39;;;;;;;8.05;2.97;;;16.30;99.90;;;;;;5094384;28;20048;-60
2023/08/04 07:01:05;;;;;;;6.57;2.63;;;16.30;99.90;;;;;;5093309;28;20054;-61
2023/08/04 07:03:30;;;;;;;8.50;3.03;;;16.30;99.90;;;;;;5093709;28;20078;-61
2023/08/04 07:05:56;;;;;;;6.43;2.80;;;16.40;99.90;;;;;;5091571;28;20064;-61
2023/08/04 07:08:21;;;;;;;9.25;3.38;;;16.40;99.90;;;;;;5094283;28;20043;-60
2023/08/04 07:10:47;;;;;;;7.05;2.78;;;16.40;99.90;;;;;;5092717;28;20052;-61
2023/08/04 07:13:13;;;;;;;8.35;2.85;;;16.50;99.90;;;;;;5094390;28;20044;-61
2023/08/04 07:15:39;;;;;;;6.40;2.78;;;16.60;99.90;;;;;;5093371;28;20047;-60
2023/08/04 07:18:05;;;;;;;8.15;2.80;;;16.60;99.90;;;;;;5096223;28;20047;-61
2023/08/04 07:20:31;;;;;;;8.15;2.78;;;16.70;99.90;;;;;;5098829;28;20052;-61
2023/08/04 07:22:57;;;;;;;5.95;2.42;;;16.70;99.90;;;;;;5096499;28;20048;-61
2023/08/04 07:25:23;;;;;;;8.80;3.17;;;16.80;99.90;;;;;;5080527;28;20082;-61
2023/08/04 07:27:48;;;;;;;13.25;3.17;;;16.90;99.90;;;;;;5096315;28;20116;-61
2023/08/04 07:30:15;;;;;;;8.27;2.70;;;17.00;99.90;;;;;;5098218;28;20140;-61
2023/08/04 07:32:41;;;;;;;9.88;2.88;;;17.00;99.90;;;;;;5097511;28;20044;-60
2023/08/04 07:35:07;;;;;;;10.10;3.40;;;17.00;99.90;;;;;;5097197;28;20082;-61
2023/08/04 07:37:33;;;;;;;9.02;2.70;;;17.20;99.90;;;;;;5098431;28;20054;-61
2023/08/04 07:39:59;;;;;;;12.95;2.55;;;17.10;99.90;;;;;;5094288;28;20067;-60
2023/08/04 07:42:25;;;;;;;7.80;2.38;;;17.00;99.90;;;;;;5086707;28;20336;-60
2023/08/04 07:44:51;;;;;;;7.20;2.70;;;16.90;99.90;;;;;;5086260;28;20503;-65
2023/08/04 07:47:16;;;;;;;10.98;2.90;;;16.80;99.90;;;;;;5087506;28;20113;-66
2023/08/04 07:49:42;;;;;;;7.60;2.60;;;16.60;99.90;;;;;;5068695;28;20040;-66
2023/08/04 07:52:07;;;;;;;8.43;2.65;;;16.20;99.90;;;;;;5086863;28;20457;-66
2023/08/04 07:54:34;;;;;;;7.90;2.92;;;16.20;99.90;;;;;;5081854;28;20036;-64
2023/08/04 07:57:01;;;;;;;12.95;3.40;;;16.10;99.90;;;;;;5086753;28;20044;-64
2023/08/04 07:59:27;;;;;;;8.63;2.92;;;16.20;99.90;;;;;;5098100;28;20103;-63
2023/08/04 08:01:53;;;;;;;10.82;3.00;;;16.20;99.90;;;;;;5095824;28;20071;-63
2023/08/04 08:04:18;;;;;;;12.85;3.65;;;16.30;99.90;;;;;;5097263;28;20170;-62
2023/08/04 08:06:44;;;;;;;7.47;2.88;;;16.40;99.90;;;;;;5096246;28;20044;-61
2023/08/04 08:09:11;;;;;;;8.77;3.10;;;16.20;99.90;;;;;;5097146;28;20040;-61
2023/08/04 08:11:38;;;;;;;7.13;2.97;;;16.60;99.90;;;;;;5097738;28;20062;-61
2023/08/04 08:14:04;;;;;;;12.73;3.78;;;16.50;99.90;;;;;;5095878;28;20040;-61
2023/08/04 08:16:29;;;;;;;10.00;3.10;;;16.80;99.90;;;;;;5097955;28;20044;-62
2023/08/04 08:18:55;;;;;;;8.02;2.80;;;17.00;99.90;;;;;;5095486;28;20036;-61
2023/08/04 08:21:21;;;;;;;10.93;2.55;;;17.10;99.90;;;;;;5087133;28;20048;-61
2023/08/04 08:23:46;;;;;;;12.50;2.47;;;17.10;99.90;;;;;;5091719;28;20357;-61
2023/08/04 08:26:12;;;;;;;8.98;2.65;;;16.90;99.90;;;;;;5084792;28;20048;-61
2023/08/04 08:28:38;;;;;;;8.95;2.10;;;16.70;99.90;;;;;;5087291;28;20063;-60
2023/08/04 08:31:04;;;;;;;6.60;1.77;;;16.60;99.90;;;;;;5090747;28;20048;-61
2023/08/04 08:33:30;;;;;;;7.30;1.80;;;16.60;99.90;;;;;;5088401;28;20036;-60
2023/08/04 08:35:56;;;;;;;6.22;1.90;;;16.50;99.90;;;;;;5089595;28;20048;-60
2023/08/04 08:38:22;;;;;;;9.63;2.00;;;16.70;99.90;;;;;;5079579;28;20056;-61
2023/08/04 08:40:48;;;;;;;10.45;2.55;;;16.90;99.90;;;;;;5096586;28;20051;-61
2023/08/04 08:43:15;;;;;;;7.63;2.30;;;17.00;99.90;;;;;;5091448;28;20046;-61
2023/08/04 08:45:42;;;;;;;6.78;1.90;;;17.20;99.90;;;;;;5091577;28;20047;-60
2023/08/04 08:48:09;;;;;;;11.52;2.17;;;17.30;99.90;;;;;;5099309;28;20483;-62
2023/08/04 08:50:35;;;;;;;8.98;1.98;;;17.40;99.90;;;;;;5101449;28;20036;-60
2023/08/04 08:53:11;;;;;;;10.80;2.00;;;17.60;99.90;;;;;;5098747;28;20093;-60
2023/08/04 08:55:38;;;;;;;6.13;1.70;;;17.60;99.90;;;;;;5081504;28;20082;-60
2023/08/04 08:58:05;;;;;;;9.35;1.90;;;17.60;99.90;;;;;;5078920;28;20032;-60
2023/08/04 09:00:31;;;;;;;9.23;1.95;;;17.60;99.90;;;;;;5078132;28;20113;-60
2023/08/04 09:02:58;;;;;;;11.98;1.85;;;17.50;99.90;;;;;;5087036;28;20535;-60
2023/08/04 09:05:23;;;;;;;9.48;1.90;;;17.40;99.90;;;;;;5086488;28;20275;-60
2023/08/04 09:07:49;;;;;;;8.75;2.72;;;17.40;99.90;;;;;;5092646;28;20078;-60
2023/08/04 09:10:15;;;;;;;11.88;2.03;;;17.40;99.90;;;;;;5098622;28;20074;-60
2023/08/04 09:12:44;;;;;;;10.52;2.08;;;17.40;99.90;;;;;;5100652;28;20067;-59
2023/08/04 09:15:10;;;;;;;9.90;2.92;;;17.40;99.90;;;;;;5098328;28;20059;-59
2023/08/04 09:17:39;;;;;;;8.48;2.17;;;17.30;99.90;;;;;;5099990;28;20742;-59
2023/08/04 09:20:07;;;;;;;14.77;2.22;;;17.30;99.90;;;;;;5100007;28;20048;-59
2023/08/04 09:22:42;;;;;;;10.77;2.22;;;17.30;99.90;;;;;;5080456;28;20040;-60
2023/08/04 09:25:08;;;;;;;11.77;2.65;;;17.30;99.90;;;;;;5100556;28;20036;-59
2023/08/04 09:27:37;;;;;;;10.70;1.98;;;17.30;99.90;;;;;;5079823;28;20458;-59
2023/08/04 09:30:08;;;;;;;11.27;2.10;;;17.30;99.90;;;;;;5081657;28;20043;-59
2023/08/04 09:32:49;;;;;;;8.68;2.85;;;17.40;99.90;;;;;;5098928;28;20044;-59
2023/08/04 09:35:16;;;;;;;5.88;1.67;;;17.40;99.90;;;;;;5098420;28;20040;-59
2023/08/04 09:37:42;;;;;;;6.75;1.60;;;17.50;99.90;;;;;;5100522;28;20135;-60
2023/08/04 09:40:19;;;;;;;7.00;2.05;;;17.40;99.90;;;;;;5096679;28;20064;-61
2023/08/04 09:42:45;;;;;;;12.80;2.25;;;17.50;99.90;;;;;;5099608;28;20044;-61
2023/08/04 09:45:16;;;;;;;10.60;2.50;;;17.70;99.90;;;;;;5098412;28;20047;-61
2023/08/04 09:47:49;;;;;;;8.50;2.25;;;17.70;99.90;;;;;;5099054;28;20040;-61
2023/08/04 09:50:16;;;;;;;7.72;2.67;;;17.90;99.90;;;;;;5089461;28;20060;-61
2023/08/04 09:52:41;;;;;;;7.20;2.25;;;17.90;99.90;;;;;;5088244;28;20126;-61
2023/08/04 09:55:10;;;;;;;6.35;1.50;;;17.80;99.90;;;;;;5070409;28;20079;-61
2023/08/04 09:57:37;;;;;;;5.78;1.40;;;18.10;99.90;;;;;;5086318;28;20075;-61
2023/08/04 10:00:05;;;;;;;6.40;1.63;;;18.10;99.90;;;;;;5087918;28;20492;-61
2023/08/04 10:02:32;;;;;;;5.82;1.17;;;18.40;99.90;;;;;;5095309;28;20052;-60
2023/08/04 10:04:59;;;;;;;6.10;1.60;;;18.10;99.90;;;;;;5098058;28;20089;-62
2023/08/04 10:07:26;;;;;;;8.32;1.48;;;18.00;99.90;;;;;;5098433;28;20097;-59
2023/08/04 10:09:51;;;;;;;5.13;1.67;;;18.20;99.90;;;;;;5096900;28;20044;-61
2023/08/04 10:12:18;;;;;;;6.35;1.73;;;18.50;99.90;;;;;;5098341;28;20087;-61
2023/08/04 10:14:44;;;;;;;4.70;1.73;;;18.60;99.90;;;;;;5096751;28;20066;-61
2023/08/04 10:17:10;;;;;;;5.95;1.20;;;18.60;99.90;;;;;;5098393;28;20443;-61
2023/08/04 10:19:37;;;;;;;5.70;1.50;;;18.40;99.90;;;;;;5096761;28;20040;-60
2023/08/04 10:22:09;;;;;;;8.55;1.80;;;18.50;99.90;;;;;;5097749;28;20040;-61
2023/08/04 10:24:36;;;;;;;4.82;1.40;;;18.70;99.90;;;;;;5099280;28;20127;-60
2023/08/04 10:27:17;;;;;;;7.85;1.83;;;18.50;99.90;;;;;;5096780;28;20048;-60
2023/08/04 10:29:43;;;;;;;3.97;1.20;;;18.40;99.90;;;;;;5098481;28;20066;-61
2023/08/04 10:32:09;;;;;;;10.15;1.80;;;18.20;99.90;;;;;;5097148;28;20555;-60
2023/08/04 10:34:40;;;;;;;5.13;1.50;;;18.60;99.90;;;;;;5098783;28;20585;-60
2023/08/04 10:37:11;;;;;;;9.77;1.55;;;19.20;99.90;;;;;;5098215;28;20507;-60
2023/08/04 10:39:40;;;;;;;4.72;1.10;;;18.80;99.90;;;;;;5095955;28;20059;-59
2023/08/04 10:42:11;;;;;;;3.85;1.48;;;19.00;99.90;;;;;;5098660;28;20693;-60
2023/08/04 10:45:06;;;;;;;5.57;1.33;;;18.80;99.90;;;;;;5096231;28;20051;-60
2023/08/04 10:47:44;;;;;;;5.13;1.30;;;18.50;99.90;;;;;;5098332;28;20052;-61
2023/08/04 10:50:10;;;;;;;6.43;1.60;;;18.60;99.90;;;;;;5098485;28;20070;-60
2023/08/04 10:52:37;;;;;;;4.13;0.93;;;18.50;99.90;;;;;;5096064;28;20048;-61
2023/08/04 10:55:06;;;;;;;5.78;1.15;;;18.90;99.90;;;;;;5098866;28;20044;-60
2023/08/04 10:57:33;;;;;;;6.22;1.48;;;18.90;99.90;;;;;;5080910;28;20094;-60
2023/08/04 11:00:09;;;;;;;3.33;1.00;;;19.10;99.90;;;;;;5060546;28;20127;-60
2023/08/04 11:02:36;;;;;;;4.25;1.20;;;19.40;99.90;;;;;;5081623;28;20050;-58
2023/08/04 11:05:07;;;;;;;4.35;1.35;;;19.30;99.90;;;;;;5085640;28;20127;-58
2023/08/04 11:07:34;;;;;;;4.18;1.13;;;19.00;99.90;;;;;;5087934;28;20050;-58
2023/08/04 11:10:04;;;;;;;4.07;1.25;;;18.80;99.90;;;;;;5086269;28;20445;-58
2023/08/04 11:12:40;;;;;;;5.35;1.30;;;18.80;99.90;;;;;;5086614;28;20495;-58
2023/08/04 11:15:10;;;;;;;6.30;1.33;;;18.40;99.90;;;;;;5084398;28;20044;-58
2023/08/04 11:17:39;;;;;;;6.47;1.27;;;18.30;99.90;;;;;;5085617;28;20120;-58
2023/08/04 11:20:10;;;;;;;4.70;1.23;;;18.40;99.90;;;;;;5085871;28;20044;-58
2023/08/04 11:22:37;;;;;;;7.00;1.30;;;18.50;99.90;;;;;;5090573;28;20036;-58
2023/08/04 11:25:06;;;;;;;6.10;1.40;;;18.60;99.90;;;;;;5088781;28;20293;-61
2023/08/04 11:27:31;;;;;;;3.88;1.50;;;18.60;99.90;;;;;;5064529;28;20519;-58
2023/08/04 11:29:57;;;;;;;4.68;1.20;;;18.70;99.90;;;;;;5092459;28;20040;-58
2023/08/04 11:32:25;;;;;;;5.72;1.20;;;18.60;99.90;;;;;;5096723;28;20040;-58
2023/08/04 11:34:54;;;;;;;5.93;1.88;;;19.00;99.90;;;;;;5097583;28;20040;-58
2023/08/04 11:37:21;;;;;;;8.15;2.17;;;18.80;99.90;;;;;;5098256;28;20044;-58
2023/08/04 11:39:48;;;;;;;4.15;1.20;;;18.90;99.90;;;;;;5096087;28;20064;-59
2023/08/04 11:42:13;;;;;;;7.93;1.70;;;19.00;99.90;;;;;;5098367;28;20114;-60
2023/08/04 11:44:40;;;;;;;5.20;1.30;;;18.80;99.90;;;;;;5096108;28;20040;-58
2023/08/04 11:47:07;;;;;;;7.90;2.22;;;18.80;99.90;;;;;;5097803;28;20048;-58
2023/08/04 11:49:35;;;;;;;9.10;1.67;;;18.70;99.90;;;;;;5096830;28;20047;-58
2023/08/04 11:52:04;;;;;;;6.85;1.15;;;18.80;99.90;;;;;;5097327;28;20036;-57
2023/08/04 11:54:30;;;;;;;4.97;1.67;;;19.00;99.90;;;;;;5088856;28;20032;-58
2023/08/04 11:56:56;;;;;;;7.75;1.83;;;19.60;99.90;;;;;;5084796;28;20120;-58
2023/08/04 11:59:23;;;;;;;6.15;1.50;;;20.10;99.90;;;;;;5086206;28;20048;-58
2023/08/04 12:01:49;;;;;;;6.72;1.38;;;19.50;99.90;;;;;;5082551;28;20067;-58
2023/08/04 12:04:25;;;;;;;8.27;1.65;;;19.60;99.90;;;;;;5078979;28;20036;-57
2023/08/04 12:07:05;;;;;;;5.50;1.40;;;20.00;99.90;;;;;;5080408;28;20041;-57
2023/08/04 12:09:31;;;;;;;4.45;1.38;;;20.10;99.90;;;;;;5079494;28;20088;-58
2023/08/04 12:11:57;;;;;;;6.18;1.65;;;19.90;99.90;;;;;;5081903;28;20063;-58
2023/08/04 12:14:23;;;;;;;4.72;1.13;;;19.80;99.90;;;;;;5078870;28;20041;-58
2023/08/04 12:16:52;;;;;;;5.18;1.30;;;19.80;99.90;;;;;;5081533;28;20044;-60
2023/08/04 12:19:19;;;;;;;2.58;1.10;;;19.40;99.90;;;;;;5080385;28;20119;-59
2023/08/04 12:21:46;;;;;;;4.90;1.50;;;19.50;99.90;;;;;;5100731;28;20635;-61
2023/08/04 12:24:12;;;;;;;4.18;1.20;;;19.50;99.90;;;;;;5082512;28;20044;-60
2023/08/04 12:26:38;;;;;;;6.63;1.98;;;19.30;99.90;;;;;;5099609;28;20040;-59
2023/08/04 12:29:04;;;;;;;6.45;1.50;;;19.50;99.90;;;;;;5101718;28;20036;-59
2023/08/04 12:31:29;;;;;;;6.65;1.17;;;19.70;99.90;;;;;;5098996;28;20070;-59
2023/08/04 12:33:55;;;;;;;4.60;1.20;;;19.70;99.90;;;;;;5101386;28;20541;-60
2023/08/04 12:36:20;;;;;;;4.13;1.38;;;19.70;99.90;;;;;;5099348;28;20129;-59
2023/08/04 12:38:46;;;;;;;5.55;1.35;;;19.30;99.90;;;;;;5088020;28;20053;-59
2023/08/04 12:41:12;;;;;;;4.13;1.20;;;19.50;99.90;;;;;;5079813;28;20056;-58
2023/08/04 12:43:38;;;;;;;5.63;1.58;;;19.60;99.90;;;;;;5079369;28;20044;-59